Time;durP1;ratioP1;P1;durP2;ratioP2;P2;SDS_P1;SDS_P2;PMS_P1;PMS_P2;Temp;Humidity;BMP_temperature;BMP_pressure;BME280_temperature;BME280_humidity;BME280_pressure;Samples;Min_cycle;Max_cycle;Signal;HPM_P1;HPM_P2
2022/09/05 00:01:31;;;;;;;2.53;0.50;;;;;;;21.94;63.19;100906.06;7383255;19;20746;-65
2022/09/05 00:04:26;;;;;;;3.92;0.60;;;;;;;21.93;63.50;100909.78;7384539;19;20018;-64
2022/09/05 00:07:18;;;;;;;4.57;0.60;;;;;;;21.96;63.47;100920.06;7380144;19;20023;-65
2022/09/05 00:10:18;;;;;;;6.50;0.60;;;;;;;21.97;63.52;100920.91;7381236;19;21229;-64
2022/09/05 00:12:48;;;;;;;4.18;0.60;;;;;;;21.94;63.75;100916.78;7385131;19;20011;-65
2022/09/05 00:15:41;;;;;;;3.03;0.50;;;;;;;21.93;63.50;100930.41;7382646;19;20048;-64
2022/09/05 00:18:33;;;;;;;2.08;0.43;;;;;;;21.95;63.93;101151.59;7384037;19;20010;-64
2022/09/05 00:21:45;;;;;;;3.58;0.43;;;;;;;21.96;64.17;101161.28;7382004;19;20015;-63
2022/09/05 00:24:56;;;;;;;2.17;0.80;;;;;;;21.97;64.19;101157.59;7383649;19;20021;-65
2022/09/05 00:28:05;;;;;;;5.47;0.88;;;;;;;22.01;66.44;101139.19;7384941;19;20015;-65
2022/09/05 00:31:25;;;;;;;9.00;1.00;;;;;;;22.00;69.25;101137.53;7382653;19;20007;-65
2022/09/05 00:34:49;;;;;;;5.28;0.68;;;;;;;21.95;72.18;101124.81;7384536;19;20025;-65
2022/09/05 00:37:35;;;;;;;6.82;1.35;;;;;;;21.87;74.31;101108.16;7381020;19;20036;-65
2022/09/05 00:40:31;;;;;;;2.80;0.93;;;;;;;21.71;74.73;101091.59;7380877;19;20014;-65
2022/09/05 00:43:06;;;;;;;2.78;0.73;;;;;;;21.60;75.75;101086.94;7384757;19;20134;-65
2022/09/05 00:46:09;;;;;;;4.35;1.02;;;;;;;21.50;77.12;101069.72;7383541;19;20019;-64
2022/09/05 00:49:06;;;;;;;7.68;1.10;;;;;;;21.39;79.57;101051.69;7383483;19;20467;-64
2022/09/05 00:51:51;;;;;;;5.80;1.15;;;;;;;21.25;80.56;101046.44;7379199;19;20359;-64
2022/09/05 00:54:51;;;;;;;2.35;0.70;;;;;;;21.12;81.28;101038.50;7386027;19;20011;-64
2022/09/05 00:57:46;;;;;;;3.08;0.70;;;;;;;21.01;83.31;101025.78;7388753;19;20120;-65
2022/09/05 01:00:13;;;;;;;4.35;0.80;;;;;;;20.94;84.10;101008.94;7388711;19;20018;-64
2022/09/05 01:03:21;;;;;;;2.40;0.70;;;;;;;20.80;84.16;101023.44;7391825;19;20014;-64
2022/09/05 01:06:26;;;;;;;2.60;0.70;;;;;;;20.71;84.85;101025.56;7384412;19;20025;-65
2022/09/05 01:09:11;;;;;;;1.90;0.60;;;;;;;20.64;85.40;101013.25;7388472;19;20010;-65
2022/09/05 01:11:44;;;;;;;9.07;5.00;;;;;;;20.56;86.01;101003.63;7385213;19;20495;-65
2022/09/05 01:14:23;;;;;;;;;;;;;;;20.56;87.42;101002.81;7391406;19;20530;-64
2022/09/05 01:17:11;;;;;;;2.35;0.70;;;;;;;20.52;87.57;100999.72;7391427;19;20039;-64
2022/09/05 01:19:50;;;;;;;1.55;0.60;;;;;;;20.49;87.71;101008.19;7388406;19;20371;-65
2022/09/05 01:22:55;;;;;;;2.35;0.60;;;;;;;20.47;88.82;101000.38;7387699;19;20037;-64
2022/09/05 01:25:43;;;;;;;4.10;1.25;;;;;;;20.45;89.23;100994.44;7388494;19;20018;-66
2022/09/05 01:28:44;;;;;;;2.13;0.50;;;;;;;20.41;89.24;100990.56;7390399;19;20014;-64
2022/09/05 01:31:57;;;;;;;2.15;0.70;;;;;;;20.38;88.87;100982.13;7388581;19;20126;-64
2022/09/05 01:34:24;;;;;;;;;;;;;;;20.35;87.71;100967.34;7390562;19;20268;-65
2022/09/05 01:37:06;;;;;;;8.70;2.65;;;;;;;20.28;87.79;100963.00;7388747;19;19982;-65
2022/09/05 01:40:02;;;;;;;4.05;0.70;;;;;;;20.23;88.04;100971.69;7384398;19;20022;-66
2022/09/05 01:42:48;;;;;;;3.35;0.88;;;;;;;20.20;88.14;100958.75;7390161;19;20363;-65
2022/09/05 01:45:25;;;;;;;2.35;1.00;;;;;;;20.20;88.84;100961.41;7387503;19;20010;-65
2022/09/05 01:48:29;;;;;;;2.67;0.90;;;;;;;20.22;89.89;100962.00;7387030;19;20015;-65
2022/09/05 01:51:10;;;;;;;2.30;1.23;;;;;;;20.22;89.13;100951.31;7381967;19;20463;-66
2022/09/05 01:54:08;;;;;;;5.40;0.80;;;;;;;20.24;89.55;100940.44;7387619;19;20025;-64
2022/09/05 01:57:31;;;;;;;5.85;1.50;;;;;;;20.26;89.82;100933.03;7389314;19;20019;-66
2022/09/05 02:00:10;;;;;;;1.38;0.60;;;;;;;20.26;90.42;100936.53;7384659;19;20022;-66
2022/09/05 02:03:05;;;;;;;4.20;0.70;;;;;;;20.27;90.54;100934.63;7389222;19;20401;-66
2022/09/05 02:06:09;;;;;;;12.50;6.28;;;;;;;20.26;90.28;100927.69;7384979;19;20018;-65
2022/09/05 02:08:47;;;;;;;3.65;1.08;;;;;;;20.25;90.60;100928.72;7385682;19;20058;-66
2022/09/05 02:11:15;;;;;;;5.07;1.30;;;;;;;20.22;89.94;100918.44;7387403;19;20033;-66
2022/09/05 02:14:28;;;;;;;3.90;1.10;;;;;;;20.20;89.70;100907.97;7388524;19;20014;-67
2022/09/05 02:17:23;;;;;;;3.65;1.20;;;;;;;20.16;89.44;100896.06;7387799;19;20018;-65
2022/09/05 02:20:45;;;;;;;3.60;1.27;;;;;;;20.15;88.86;100907.78;7387721;19;20015;-65
2022/09/05 02:23:26;;;;;;;5.57;2.60;;;;;;;20.18;89.34;100895.84;7384154;19;20504;-65
2022/09/05 02:26:33;;;;;;;5.28;1.10;;;;;;;20.19;90.23;100889.47;7388700;19;20264;-65
2022/09/05 02:29:38;;;;;;;5.80;1.13;;;;;;;20.21;90.66;100893.59;7387329;19;20418;-64
2022/09/05 02:32:17;;;;;;;4.55;1.00;;;;;;;20.20;90.00;100907.97;7386404;19;20016;-65
2022/09/05 02:34:57;;;;;;;6.07;1.50;;;;;;;20.21;89.85;100906.94;7386486;19;20021;-65
2022/09/05 02:37:33;;;;;;;5.38;1.17;;;;;;;20.21;89.54;100906.94;7385588;19;20018;-66
2022/09/05 02:40:35;;;;;;;6.75;1.05;;;;;;;20.21;89.26;100927.50;7384973;19;20006;-65
2022/09/05 02:43:42;;;;;;;5.00;2.13;;;;;;;20.27;89.77;100939.97;7386655;19;20394;-65
2022/09/05 02:46:44;;;;;;;7.22;1.95;;;;;;;20.32;90.54;100953.56;7386587;19;20011;-65
2022/09/05 02:49:27;;;;;;;5.18;1.35;;;;;;;20.33;89.49;100966.72;7385181;19;20025;-64
2022/09/05 02:52:18;;;;;;;4.70;1.15;;;;;;;20.33;89.89;100963.22;7382049;19;20011;-64
2022/09/05 02:55:30;;;;;;;4.75;1.20;;;;;;;20.32;89.95;100964.25;7386524;19;20017;-65
2022/09/05 02:58:40;;;;;;;11.73;1.38;;;;;;;20.32;90.34;100966.94;7385987;19;20050;-65
2022/09/05 03:01:45;;;;;;;4.50;1.50;;;;;;;20.33;91.32;100950.69;7385663;19;20029;-64
2022/09/05 03:04:12;;;;;;;5.47;1.30;;;;;;;20.34;91.18;100964.88;7387524;19;20510;-65
2022/09/05 03:06:53;;;;;;;3.97;1.50;;;;;;;20.35;90.84;100980.72;7384012;19;20041;-65
2022/09/05 03:10:11;;;;;;;4.65;1.40;;;;;;;20.35;91.33;101003.94;7384464;19;20490;-65
2022/09/05 03:12:40;;;;;;;5.45;1.38;;;;;;;20.33;91.79;101009.50;7383386;19;20025;-66
2022/09/05 03:15:55;;;;;;;2.60;1.65;;;;;;;20.35;92.47;101012.78;7385007;19;20014;-64
2022/09/05 03:18:24;;;;;;;3.25;1.83;;;;;;;20.35;92.31;101006.63;7384780;19;20006;-65
2022/09/05 03:21:13;;;;;;;6.00;2.03;;;;;;;20.37;92.61;101017.91;7384109;19;20042;-65
2022/09/05 03:24:09;;;;;;;3.58;1.80;;;;;;;20.41;92.17;101027.16;7386843;19;20021;-66
2022/09/05 03:27:13;;;;;;;5.90;1.73;;;;;;;20.39;91.66;101029.22;7384742;19;20010;-64
2022/09/05 03:30:14;;;;;;;4.53;1.75;;;;;;;20.38;91.63;101024.91;7384181;19;20018;-65
2022/09/05 03:33:06;;;;;;;2.47;1.55;;;;;;;20.38;91.82;101038.25;7384725;19;20038;-64
2022/09/05 03:35:47;;;;;;;33.45;18.02;;;;;;;20.38;92.02;101036.41;7383190;19;20384;-66
2022/09/05 03:38:55;;;;;;;5.82;2.45;;;;;;;20.41;92.18;101048.56;7384996;19;20010;-64
2022/09/05 03:41:34;;;;;;;2.67;1.30;;;;;;;20.40;91.99;101050.41;7379981;19;20009;-64
2022/09/05 03:44:15;;;;;;;5.35;1.77;;;;;;;20.36;90.94;101038.50;7384087;19;20494;-64
2022/09/05 03:47:10;;;;;;;3.97;1.52;;;;;;;20.35;90.79;101038.69;7383592;19;20021;-65
2022/09/05 03:50:05;;;;;;;7.03;1.83;;;;;;;20.31;91.16;101046.31;7382419;19;20011;-65
2022/09/05 03:52:58;;;;;;;5.03;1.30;;;;;;;20.29;90.91;101050.19;7380027;19;20463;-65
2022/09/05 03:56:12;;;;;;;6.18;3.97;;;;;;;20.28;91.25;101048.53;7385401;19;20002;-65
2022/09/05 03:59:19;;;;;;;5.28;1.80;;;;;;;20.30;91.88;101039.31;7383709;19;20384;-65
2022/09/05 04:01:55;;;;;;;4.63;1.50;;;;;;;20.32;91.58;101050.63;7383557;19;20015;-65
2022/09/05 04:04:48;;;;;;;3.25;1.10;;;;;;;20.30;90.76;101055.34;7384321;19;20011;-65
2022/09/05 04:07:45;;;;;;;3.75;1.55;;;;;;;20.29;90.60;101045.69;7383318;19;20019;-65
2022/09/05 04:10:41;;;;;;;5.78;1.52;;;;;;;20.27;90.53;101036.22;7382820;19;20011;-65
2022/09/05 04:13:19;;;;;;;14.20;8.25;;;;;;;20.28;90.97;101037.84;7384321;19;20539;-64
2022/09/05 04:16:00;;;;;;;7.20;2.67;;;;;;;20.29;91.06;101044.84;7383747;19;20024;-65
2022/09/05 04:18:38;;;;;;;3.10;1.20;;;;;;;20.26;91.05;101045.28;7383677;19;20018;-65
2022/09/05 04:21:33;;;;;;;4.72;1.33;;;;;;;20.24;91.42;101058.84;7381247;19;20040;-65
2022/09/05 04:24:09;;;;;;;7.15;1.55;;;;;;;20.20;90.59;101046.13;7383977;19;20376;-65
2022/09/05 04:26:57;;;;;;;5.97;1.45;;;;;;;20.18;90.44;101066.88;7384463;19;20014;-65
2022/09/05 04:29:26;;;;;;;4.07;1.25;;;;;;;20.16;90.42;101063.63;7379655;19;20030;-65
2022/09/05 04:32:14;;;;;;;6.30;1.65;;;;;;;20.14;90.25;101052.31;7383354;19;20010;-65
2022/09/05 04:35:10;;;;;;;8.77;1.58;;;;;;;20.15;89.99;101056.63;7383093;19;20014;-65
2022/09/05 04:37:46;;;;;;;7.60;1.30;;;;;;;20.13;89.34;101064.00;7380606;19;20044;-64
2022/09/05 04:40:39;;;;;;;7.88;1.40;;;;;;;20.09;89.76;101071.63;7380351;19;20038;-66
2022/09/05 04:43:17;;;;;;;5.93;1.33;;;;;;;20.07;89.97;101071.84;7381807;19;20033;-64
2022/09/05 04:45:53;;;;;;;7.65;1.40;;;;;;;20.07;89.87;101076.34;7381523;19;20010;-65
2022/09/05 04:48:33;;;;;;;6.82;1.30;;;;;;;20.07;90.66;101079.84;7384036;19;20021;-66
2022/09/05 04:51:19;;;;;;;3.22;1.30;;;;;;;20.04;90.57;101077.59;7379364;19;20355;-66
2022/09/05 04:54:03;;;;;;;5.47;1.35;;;;;;;20.03;90.83;101078.63;7382733;19;20483;-65
2022/09/05 04:56:36;;;;;;;5.22;1.42;;;;;;;20.01;90.82;101080.69;7384413;19;20387;-64
2022/09/05 04:59:07;;;;;;;;;;;;;;;19.99;90.96;101082.75;7382979;19;20282;-65
2022/09/05 05:02:11;;;;;;;10.50;1.48;;;;;;;19.94;91.22;101076.38;7382638;19;19919;-65
2022/09/05 05:05:01;;;;;;;5.47;1.45;;;;;;;19.91;91.80;101082.16;7382021;19;20011;-65
2022/09/05 05:07:56;;;;;;;6.13;1.60;;;;;;;19.86;91.55;101074.75;7384148;19;20582;-64
2022/09/05 05:10:41;;;;;;;5.50;1.60;;;;;;;19.83;91.78;101069.00;7378527;19;20010;-66
2022/09/05 05:13:35;;;;;;;5.28;1.65;;;;;;;19.81;91.50;101076.41;7383783;19;20025;-65
2022/09/05 05:16:30;;;;;;;4.70;1.30;;;;;;;19.76;91.71;101082.34;7382224;19;20011;-64
2022/09/05 05:19:32;;;;;;;5.35;1.77;;;;;;;19.71;91.61;101084.03;7380205;19;20486;-64
2022/09/05 05:22:03;;;;;;;5.45;1.52;;;;;;;19.70;91.81;101091.22;7381773;19;20030;-65
2022/09/05 05:24:40;;;;;;;3.92;1.40;;;;;;;19.68;92.25;101097.78;7382621;19;20014;-66
2022/09/05 05:27:53;;;;;;;6.53;2.55;;;;;;;19.70;93.73;101101.06;7382871;19;20036;-66
2022/09/05 05:30:30;;;;;;;5.90;1.85;;;;;;;19.69;93.33;101099.41;7375864;19;20016;-66
2022/09/05 05:33:02;;;;;;;5.25;1.35;;;;;;;19.69;93.30;101102.91;7382258;19;20478;-66
2022/09/05 05:35:32;;;;;;;8.63;1.80;;;;;;;19.67;92.75;101098.78;7377659;19;20042;-66
2022/09/05 05:38:36;;;;;;;6.65;1.77;;;;;;;19.65;92.29;101091.00;7376421;19;20026;-64
2022/09/05 05:41:17;;;;;;;4.88;1.58;;;;;;;19.65;92.32;101099.03;7384924;19;20018;-64
2022/09/05 05:43:46;;;;;;;6.72;1.85;;;;;;;19.64;92.46;101103.53;7389189;19;20014;-66
2022/09/05 05:46:25;;;;;;;5.85;1.38;;;;;;;19.64;92.91;101108.88;7386040;19;20364;-65
2022/09/05 05:49:02;;;;;;;6.47;1.92;;;;;;;19.66;92.73;101113.19;7387939;19;20606;-65
2022/09/05 05:51:54;;;;;;;4.47;1.50;;;;;;;19.66;93.19;101114.00;7384288;19;20031;-65
2022/09/05 05:54:34;;;;;;;5.47;1.58;;;;;;;19.66;93.04;101110.53;7387924;19;20018;-66
2022/09/05 05:57:55;;;;;;;6.82;1.90;;;;;;;19.64;92.44;101108.06;7387139;19;20017;-64
2022/09/05 06:00:28;;;;;;;6.07;1.25;;;;;;;19.64;92.81;101113.41;7383542;19;20014;-65
2022/09/05 06:03:36;;;;;;;10.70;4.95;;;;;;;19.63;92.83;101119.75;7389819;19;20014;-65
2022/09/05 06:06:31;;;;;;;6.50;1.90;;;;;;;19.62;93.10;101126.94;7386928;19;20482;-65
2022/09/05 06:09:00;;;;;;;7.93;2.00;;;;;;;19.64;93.23;101134.75;7389026;19;20022;-65
2022/09/05 06:12:15;;;;;;;5.28;1.17;;;;;;;19.64;93.52;101140.91;7386076;19;20146;-66
2022/09/05 06:15:24;;;;;;;11.20;2.03;;;;;;;19.67;93.09;101152.19;7387287;19;20437;-66
2022/09/05 06:17:52;;;;;;;13.43;1.70;;;;;;;19.69;93.23;101151.00;7386300;19;20021;-66
2022/09/05 06:20:46;;;;;;;9.80;1.80;;;;;;;19.73;93.07;101154.88;7386430;19;20395;-64
2022/09/05 06:23:44;;;;;;;9.20;2.17;;;;;;;19.78;92.75;101146.25;7384124;19;20328;-64
2022/09/05 06:26:41;;;;;;;4.72;1.33;;;;;;;19.79;92.52;101143.38;7386782;19;20078;-65
2022/09/05 06:29:14;;;;;;;4.13;1.10;;;;;;;19.81;92.42;101154.66;7384647;19;20023;-65
2022/09/05 06:32:12;;;;;;;5.43;1.48;;;;;;;19.81;91.92;101152.00;7385040;19;20459;-66
2022/09/05 06:34:45;;;;;;;6.28;1.35;;;;;;;19.83;91.96;101165.16;7382910;19;20014;-65
2022/09/05 06:37:45;;;;;;;6.18;1.58;;;;;;;19.84;91.90;101151.59;7384724;19;20049;-65
2022/09/05 06:40:24;;;;;;;7.60;1.50;;;;;;;19.88;92.01;101160.03;7384027;19;20089;-66
2022/09/05 06:43:20;;;;;;;3.90;1.10;;;;;;;19.90;91.34;101166.00;7388837;19;20096;-65
2022/09/05 06:46:03;;;;;;;3.80;1.75;;;;;;;19.92;91.36;101178.09;7381589;19;20026;-65
2022/09/05 06:48:34;;;;;;;3.75;1.27;;;;;;;19.93;91.00;101182.44;7386604;19;20022;-65
2022/09/05 06:51:47;;;;;;;8.60;1.27;;;;;;;19.94;90.87;101178.72;7380988;19;20010;-65
2022/09/05 06:54:52;;;;;;;6.68;1.30;;;;;;;19.96;91.31;101178.53;7387578;19;20083;-66
2022/09/05 06:57:34;;;;;;;4.40;2.22;;;;;;;20.00;91.47;101180.59;7385294;19;20446;-64
2022/09/05 07:00:32;;;;;;;8.02;1.42;;;;;;;20.07;91.73;101186.72;7383459;19;20042;-65
2022/09/05 07:03:10;;;;;;;6.10;1.10;;;;;;;20.08;90.98;101191.06;7387159;19;20459;-66
2022/09/05 07:05:42;;;;;;;6.53;1.13;;;;;;;20.12;90.34;101204.00;7385386;19;20025;-65
2022/09/05 07:09:01;;;;;;;6.55;1.10;;;;;;;20.14;90.15;101192.09;7382604;19;20018;-66
2022/09/05 07:12:03;;;;;;;3.05;0.77;;;;;;;20.16;89.94;101200.72;7382167;19;20025;-65
2022/09/05 07:14:34;;;;;;;;;;;;;;;20.21;89.68;101200.94;7386010;19;20014;-66
2022/09/05 07:17:31;;;;;;;10.15;1.40;;;;;;;20.25;90.83;101218.19;7385877;19;19922;-67
2022/09/05 07:20:52;;;;;;;5.50;1.38;;;;;;;20.29;89.83;101207.91;7382296;19;20549;-65
2022/09/05 07:23:54;;;;;;;5.72;0.90;;;;;;;20.33;89.34;101215.31;7387187;19;20378;-66
2022/09/05 07:26:41;;;;;;;6.13;1.10;;;;;;;20.36;89.25;101217.59;7386119;19;20328;-66
2022/09/05 07:29:33;;;;;;;7.70;1.30;;;;;;;20.40;89.21;101218.00;7384936;19;20014;-66
2022/09/05 07:32:05;;;;;;;6.70;1.30;;;;;;;20.44;89.45;101211.22;7379103;19;20019;-65
2022/09/05 07:34:36;;;;;;;4.75;1.35;;;;;;;20.48;89.42;101215.94;7380093;19;20390;-66
2022/09/05 07:37:11;;;;;;;5.80;1.25;;;;;;;20.56;89.03;101216.75;7382712;19;20029;-64
2022/09/05 07:39:56;;;;;;;4.30;0.80;;;;;;;20.62;88.84;101223.94;7380254;19;20047;-64
2022/09/05 07:42:55;;;;;;;8.05;1.00;;;;;;;20.65;88.43;101219.00;7384315;19;20015;-65
2022/09/05 07:45:41;;;;;;;5.45;0.90;;;;;;;20.67;88.53;101224.13;7383441;19;20048;-66
2022/09/05 07:48:26;;;;;;;2.38;0.70;;;;;;;20.69;87.91;101227.41;7383362;19;20019;-65
2022/09/05 07:51:05;;;;;;;6.20;0.70;;;;;;;20.72;87.63;101217.13;7380174;19;20024;-64
2022/09/05 07:53:56;;;;;;;8.13;1.15;;;;;;;20.77;87.94;101222.69;7384120;19;20014;-65
2022/09/05 07:56:58;;;;;;;3.55;0.70;;;;;;;20.81;87.41;101223.91;7382673;19;20007;-65
2022/09/05 07:59:52;;;;;;;7.75;0.90;;;;;;;20.85;87.36;101227.78;7381077;19;20014;-67
2022/09/05 08:02:19;;;;;;;8.05;1.98;;;;;;;20.88;87.21;101226.53;7384248;19;20382;-65
2022/09/05 08:04:46;;;;;;;12.43;1.55;;;;;;;20.93;87.62;101229.41;7383483;19;20018;-65
2022/09/05 08:07:16;;;;;;;8.98;0.85;;;;;;;20.98;87.32;101229.59;7381607;19;20011;-66
2022/09/05 08:10:11;;;;;;;6.57;1.05;;;;;;;21.10;89.87;101227.09;7383117;19;20493;-65
2022/09/05 08:12:53;;;;;;;14.63;8.95;;;;;;;21.19;91.37;101232.00;7381968;19;20018;-64
2022/09/05 08:15:52;;;;;;;10.45;1.75;;;;;;;21.23;90.43;101232.44;7382546;19;20014;-65
2022/09/05 08:18:48;;;;;;;10.52;1.30;;;;;;;21.24;88.58;101234.06;7383945;19;20015;-65
2022/09/05 08:21:31;;;;;;;5.93;1.00;;;;;;;21.26;87.61;101226.63;7382215;19;20483;-65
2022/09/05 08:24:25;;;;;;;10.15;3.70;;;;;;;21.31;87.46;101229.50;7383264;19;20041;-66
2022/09/05 08:27:04;;;;;;;7.45;1.52;;;;;;;21.33;87.68;101230.91;7382765;19;20014;-67
2022/09/05 08:30:01;;;;;;;5.88;1.13;;;;;;;21.34;86.56;101216.50;7381736;19;20182;-66
2022/09/05 08:33:11;;;;;;;6.03;0.82;;;;;;;21.38;85.85;101222.28;7384166;19;20103;-66
2022/09/05 08:35:48;;;;;;;7.47;1.40;;;;;;;21.40;85.44;101225.53;7384067;19;20047;-64
2022/09/05 08:38:20;;;;;;;6.45;1.00;;;;;;;21.41;85.07;101237.91;7383926;19;20011;-66
2022/09/05 08:41:14;;;;;;;14.75;1.17;;;;;;;21.39;84.27;101250.66;7380455;19;20021;-65
2022/09/05 08:44:18;;;;;;;9.77;2.63;;;;;;;21.39;84.32;101260.56;7383686;19;20053;-65
2022/09/05 08:47:23;;;;;;;4.10;0.75;;;;;;;21.45;85.19;101257.03;7383110;19;20018;-64
2022/09/05 08:50:25;;;;;;;8.05;1.42;;;;;;;21.49;84.79;101256.38;7380333;19;20046;-64
2022/09/05 08:53:04;;;;;;;6.50;0.85;;;;;;;21.51;84.90;101259.69;7382905;19;20455;-66
2022/09/05 08:56:00;;;;;;;4.20;0.77;;;;;;;21.56;85.04;101261.72;7382202;19;20543;-65
2022/09/05 08:58:42;;;;;;;2.60;1.25;;;;;;;21.61;85.11;101268.06;7383408;19;20294;-65
2022/09/05 09:01:12;;;;;;;9.15;2.92;;;;;;;21.64;84.89;101264.13;7381988;19;20202;-65
2022/09/05 09:03:58;;;;;;;6.55;1.08;;;;;;;21.66;85.26;101262.91;7383272;19;20345;-65
2022/09/05 09:07:03;;;;;;;9.35;1.70;;;;;;;21.70;84.38;101260.59;7379497;19;20034;-66
2022/09/05 09:09:59;;;;;;;8.10;1.00;;;;;;;21.71;84.21;101267.59;7380320;19;20022;-66
2022/09/05 09:13:03;;;;;;;8.35;1.48;;;;;;;21.72;84.21;101267.41;7380764;19;20079;-65
2022/09/05 09:15:44;;;;;;;8.52;2.40;;;;;;;21.71;84.52;101268.44;7384849;19;20771;-66
2022/09/05 09:18:15;;;;;;;4.35;1.05;;;;;;;21.73;84.43;101269.06;7390671;19;20047;-65
2022/09/05 09:20:55;;;;;;;5.18;1.23;;;;;;;21.76;84.63;101270.47;7389051;19;20440;-66
2022/09/05 09:23:43;;;;;;;3.15;1.48;;;;;;;21.80;84.20;101263.63;7389051;19;20021;-65
2022/09/05 09:26:21;;;;;;;10.43;3.08;;;;;;;21.84;84.31;101264.03;7388983;19;20030;-65
2022/09/05 09:29:14;;;;;;;6.95;1.00;;;;;;;21.88;84.27;101257.19;7390227;19;20014;-64
2022/09/05 09:32:12;;;;;;;7.43;1.13;;;;;;;21.89;84.04;101267.69;7386982;19;20010;-64
2022/09/05 09:34:52;;;;;;;6.15;0.90;;;;;;;21.90;83.58;101266.66;7389040;19;20427;-65
2022/09/05 09:37:43;;;;;;;3.72;0.60;;;;;;;21.94;83.36;101265.22;7388700;19;20022;-65
2022/09/05 09:40:37;;;;;;;5.22;1.02;;;;;;;21.99;84.09;101265.38;7382733;19;20435;-64
2022/09/05 09:43:22;;;;;;;3.58;0.80;;;;;;;22.06;83.86;101274.22;7387602;19;20086;-65
2022/09/05 09:46:16;;;;;;;5.50;0.70;;;;;;;22.12;82.51;101277.88;7385448;19;20010;-64
2022/09/05 09:49:01;;;;;;;4.25;0.75;;;;;;;22.13;81.44;101283.03;7387850;19;20042;-65
2022/09/05 09:52:09;;;;;;;3.10;0.70;;;;;;;22.17;80.94;101278.06;7383473;19;20025;-65
2022/09/05 09:55:08;;;;;;;4.50;0.50;;;;;;;22.23;80.58;101274.50;7383169;19;20014;-66
2022/09/05 09:58:10;;;;;;;4.93;0.60;;;;;;;22.30;79.46;101272.56;7388950;19;20371;-66
2022/09/05 10:01:23;;;;;;;5.10;0.70;;;;;;;22.36;79.21;101274.38;7386614;19;20029;-64
2022/09/05 10:04:06;;;;;;;7.93;0.60;;;;;;;22.42;78.73;101270.84;7386936;19;20019;-65
2022/09/05 10:07:14;;;;;;;4.22;0.80;;;;;;;22.47;78.20;101280.91;7385267;19;20013;-65
2022/09/05 10:10:27;;;;;;;6.80;0.90;;;;;;;22.52;78.98;101278.38;7387697;19;20014;-65
2022/09/05 10:13:25;;;;;;;5.50;0.60;;;;;;;22.56;79.01;101279.56;7387738;19;20023;-65
2022/09/05 10:16:14;;;;;;;5.13;1.08;;;;;;;22.54;77.96;101274.44;7388621;19;20021;-64
2022/09/05 10:18:53;;;;;;;5.82;0.80;;;;;;;22.56;78.51;101271.53;7386092;19;20090;-65
2022/09/05 10:21:39;;;;;;;3.67;0.70;;;;;;;22.56;77.71;101271.53;7385737;19;20495;-64
2022/09/05 10:24:28;;;;;;;7.93;0.70;;;;;;;22.58;78.35;101266.78;7386983;19;20122;-64
2022/09/05 10:27:12;;;;;;;3.53;0.80;;;;;;;22.62;78.43;101265.28;7386680;19;20334;-64
2022/09/05 10:30:06;;;;;;;7.05;0.68;;;;;;;22.64;78.13;101257.84;7387802;19;20050;-65
2022/09/05 10:33:08;;;;;;;4.93;0.90;;;;;;;22.64;78.01;101262.38;7385682;19;20522;-66
2022/09/05 10:36:15;;;;;;;7.43;1.23;;;;;;;22.60;77.93;101251.28;7383813;19;20018;-65
2022/09/05 10:38:46;;;;;;;4.53;1.10;;;;;;;22.59;77.32;101247.78;7388094;19;20574;-65
2022/09/05 10:41:18;;;;;;;5.35;0.65;;;;;;;22.58;77.17;101248.00;7384734;19;20011;-65
2022/09/05 10:44:01;;;;;;;4.95;0.60;;;;;;;22.59;76.66;101247.78;7388686;19;20483;-66
2022/09/05 10:46:54;;;;;;;5.60;0.88;;;;;;;22.58;76.14;101254.19;7386458;19;20014;-65
2022/09/05 10:49:33;;;;;;;4.68;0.77;;;;;;;22.58;75.93;101250.66;7385694;19;20025;-66
2022/09/05 10:52:10;;;;;;;9.00;2.47;;;;;;;22.58;76.46;101246.13;7384303;19;20126;-65
2022/09/05 10:55:17;;;;;;;3.33;0.80;;;;;;;22.61;77.25;101236.81;7383210;19;20478;-65
2022/09/05 10:57:46;;;;;;;5.60;0.85;;;;;;;22.60;76.50;101246.72;7387842;19;20806;-66
2022/09/05 11:00:40;;;;;;;3.72;0.73;;;;;;;22.59;76.53;101250.47;7385254;19;20495;-66
2022/09/05 11:03:35;;;;;;;5.25;0.70;;;;;;;22.58;76.00;101239.94;7386296;19;20019;-64
2022/09/05 11:06:10;;;;;;;1.88;0.50;;;;;;;22.57;76.05;101236.44;7383551;19;20073;-66
2022/09/05 11:08:37;;;;;;;4.53;0.80;;;;;;;22.55;76.39;101219.72;7385992;19;20006;-66
2022/09/05 11:11:26;;;;;;;8.85;1.02;;;;;;;22.53;76.23;101223.69;7386805;19;20360;-66
2022/09/05 11:14:19;;;;;;;5.93;1.02;;;;;;;22.54;77.58;101230.69;7386975;19;20483;-66
2022/09/05 11:17:05;;;;;;;6.30;0.80;;;;;;;22.54;77.22;101236.88;7387061;19;20086;-67
2022/09/05 11:19:46;;;;;;;6.68;0.73;;;;;;;22.52;76.55;101228.22;7385407;19;20014;-64
2022/09/05 11:22:14;;;;;;;6.90;1.10;;;;;;;22.54;76.58;101238.75;7385329;19;20014;-67
2022/09/05 11:25:02;;;;;;;4.75;1.40;;;;;;;22.58;76.52;101235.41;7385158;19;20018;-66
2022/09/05 11:27:34;;;;;;;6.03;0.90;;;;;;;22.60;76.79;101237.88;7387502;19;20017;-64
2022/09/05 11:30:12;;;;;;;4.93;0.98;;;;;;;22.59;76.65;101237.03;7383804;19;20022;-66
2022/09/05 11:33:22;;;;;;;3.03;1.45;;;;;;;22.64;76.83;101228.31;7384945;19;20574;-64
2022/09/05 11:36:23;;;;;;;4.43;0.77;;;;;;;22.71;76.76;101226.41;7381060;19;20015;-66
2022/09/05 11:39:33;;;;;;;7.95;1.45;;;;;;;22.75;76.27;101229.50;7369023;19;20341;-65
2022/09/05 11:42:49;;;;;;;6.63;1.77;;;;;;;22.80;76.08;101227.78;7381641;19;20017;-65
2022/09/05 11:45:44;;;;;;;3.53;0.68;;;;;;;22.83;75.48;101230.00;7378996;19;20486;-65
2022/09/05 11:48:46;;;;;;;5.90;1.15;;;;;;;22.86;75.28;101248.34;7381169;19;20006;-64
2022/09/05 11:51:19;;;;;;;5.20;0.60;;;;;;;22.86;75.31;101250.19;7376212;19;20018;-65
2022/09/05 11:54:27;;;;;;;8.68;0.98;;;;;;;22.86;74.97;101251.00;7381728;19;20018;-66
2022/09/05 11:56:54;;;;;;;3.55;0.70;;;;;;;22.88;74.97;101254.31;7382876;19;20146;-66
2022/09/05 12:00:06;;;;;;;4.60;0.55;;;;;;;22.95;74.65;101256.94;7383537;19;20085;-66
2022/09/05 12:03:00;;;;;;;2.05;0.50;;;;;;;23.01;72.93;101254.16;7381944;19;20023;-66
2022/09/05 12:05:51;;;;;;;2.45;0.70;;;;;;;23.07;71.23;101257.81;7380134;19;20046;-66
2022/09/05 12:08:25;;;;;;;2.95;0.47;;;;;;;23.10;71.18;101248.50;7383258;19;20459;-66
2022/09/05 12:11:25;;;;;;;4.38;0.50;;;;;;;23.12;71.67;101255.28;7381729;19;20043;-65
2022/09/05 12:14:33;;;;;;;3.90;0.85;;;;;;;23.14;71.37;101252.38;7382666;19;20462;-66
2022/09/05 12:17:20;;;;;;;2.83;0.50;;;;;;;23.14;70.47;101247.81;7379579;19;20026;-65
2022/09/05 12:20:13;;;;;;;3.50;0.40;;;;;;;23.11;70.26;101236.72;7379441;19;20491;-65
2022/09/05 12:23:26;;;;;;;3.70;0.50;;;;;;;23.06;70.78;101232.00;7381690;19;20095;-65
2022/09/05 12:26:22;;;;;;;5.07;0.52;;;;;;;23.00;71.21;101240.97;7380695;19;20449;-65
2022/09/05 12:29:17;;;;;;;3.05;0.65;;;;;;;22.97;71.76;101238.72;7381353;19;20014;-67
2022/09/05 12:32:09;;;;;;;4.13;1.00;;;;;;;22.94;73.40;101231.94;7382119;19;20359;-67
2022/09/05 12:35:03;;;;;;;5.97;0.80;;;;;;;22.93;74.06;101238.34;7380747;19;20522;-66
2022/09/05 12:38:02;;;;;;;6.35;1.13;;;;;;;22.92;73.71;101238.56;7371441;19;20022;-66
2022/09/05 12:41:03;;;;;;;6.78;0.60;;;;;;;22.91;73.93;101248.47;7374913;19;20363;-65
2022/09/05 12:44:03;;;;;;;2.80;0.70;;;;;;;22.93;74.14;101246.41;7381815;19;20479;-66
2022/09/05 12:47:00;;;;;;;3.92;0.70;;;;;;;22.94;74.49;101242.69;7379467;19;20022;-65
2022/09/05 12:49:59;;;;;;;7.70;2.95;;;;;;;22.95;74.77;101238.97;7381692;19;20029;-66
2022/09/05 12:52:32;;;;;;;3.72;0.60;;;;;;;22.96;74.58;101240.56;7385727;19;20014;-66
2022/09/05 12:55:09;;;;;;;5.80;1.15;;;;;;;22.97;74.48;101246.78;7387772;19;20100;-66
2022/09/05 12:57:41;;;;;;;2.00;0.50;;;;;;;22.97;74.08;101242.22;7387723;19;20481;-66
2022/09/05 13:00:41;;;;;;;4.85;0.60;;;;;;;22.98;74.11;101233.13;7386856;19;20003;-66
2022/09/05 13:03:42;;;;;;;5.95;0.60;;;;;;;22.98;73.45;101222.41;7389134;19;20093;-66
2022/09/05 13:06:37;;;;;;;3.47;0.32;;;;;;;22.98;73.06;101224.25;7386137;19;20046;-66
2022/09/05 13:09:15;;;;;;;4.40;0.90;;;;;;;22.97;73.10;101228.81;7388824;19;20042;-66
2022/09/05 13:11:50;;;;;;;3.15;0.80;;;;;;;22.97;73.42;101236.84;7387849;19;20018;-66
2022/09/05 13:14:56;;;;;;;2.78;0.40;;;;;;;22.97;72.63;101228.81;7387417;19;20018;-66